Historyczne dane pomiarowe

Dodano dane terminowe – wersja testowa.

Dane z okresu 1951-2019

Wersja bazy: 1.34 [2019-03-16, lista zmian], aktualizacja planowana na 2019-04-15

Dane meteo z obszaru Polski uzyskane na podstawie danych udostępnionych przez Instytut Meteorologii i Gospodarki Wodnej – Państwowy Instytut Badawczy.

 

Wybierz Datę:    

       

TemperaturaWilgotnośćWiatrCiśnienieOpadyŚniegCzas trwania zjawisk
 Stacja t tx tn tng RH VA  wxwx mslp ppp RRR   cm mm wxwxwxwxwxwxwx
1975-07-16 18.7 25.2 15.9--- 4.7 0.3---- 0.0------------
1975-07-17 14.3 20.1 9.2--- 5.0 0.3---- 0.0------------
1975-07-18 15.2 20.4 8.5--- 6.0 0.0---- 13.1------------
1975-07-19 15.7 20.7 11.8--- 7.0 0.3---- 43.1------------
1975-07-20 13.5 16.5 12.0--- 6.7 0.7---- 7.8------------
1975-07-21 12.2 12.9 11.7--- 8.0 1.7---- 5.2------------
1975-07-22 14.7 18.9 12.6--- 5.7 1.0---- 0.0------------
1975-07-23 15.7 22.9 8.1--- 2.3 0.3---- 0.0------------
1975-07-24 17.1 24.4 10.1--- 1.3 0.0---- 11.3------------
1975-07-25 13.2 18.8 10.8--- 7.3 0.0---- 51.5------------
1975-07-26 8.5 11.9 7.3--- 8.0 1.0---- 10.4------------
1975-07-27 10.2 13.8 6.8--- 5.7 1.3---- 0.3------------
1975-07-28 11.2 13.4 9.2--- 8.0 1.0---- 2.3------------
1975-07-29 15.0 20.4 12.1--- 4.7 0.3---- 0.0------------
1975-07-30 14.2 20.0 10.7--- 6.3 0.0---- 1.8------------
1975-07-31 14.7 20.0 12.3--- 3.0 0.3---- 0.0------------
1975-08-01 13.5 20.0 10.1--- 5.7 0.0---- 1.6------------
1975-08-02 13.1 19.0 9.6--- 6.7 1.0---- 3.8------------
1975-08-03 12.0 14.5 10.1--- 8.0 0.7---- 13.6------------
1975-08-04 14.1 18.0 10.9--- 6.0 0.3---- 23.6------------
1975-08-05 14.6 19.6 10.8--- 4.3 0.0---- 0.0------------
1975-08-06 13.2 18.6 8.7--- 6.3 0.3---- 10.0------------
1975-08-07 14.6 18.6 9.6--- 5.7 0.3---- 14.0------------
1975-08-08 15.2 21.7 9.6--- 4.7 0.0---- 2.4------------
1975-08-09 15.4 22.2 8.8--- 0.0 0.0---- 0.0------------
1975-08-10 16.3 23.4 10.3--- 3.3 0.3---- 0.2------------
1975-08-11 16.1 23.4 9.7--- 0.3 0.0---- 0.0------------
1975-08-12 15.7 24.5 10.3--- 0.0 1.0---- 1.0------------
1975-08-13 10.7 15.0 8.1--- 4.0 0.7---- 0.0------------
1975-08-14 9.9 18.4 0.3--- 0.0 0.3---- 0.0------------
155.3 ms

 

Źródłem pochodzenia danych jest Instytut Meteorologii i Gospodarki Wodnej – Państwowy Instytut Badawczy. Dane Instytutu Meteorologii i Gospodarki Wodnej – Państwowego Instytutu Badawczego zostały przetworzone.

Dane źródłowe można odnaleźć na stronie https://dane.imgw.pl